Time;durP1;ratioP1;P1;durP2;ratioP2;P2;SDS_P1;SDS_P2;PMS_P1;PMS_P2;Temp;Humidity;BMP_temperature;BMP_pressure;BME280_temperature;BME280_humidity;BME280_pressure;Samples;Min_cycle;Max_cycle;Signal;HPM_P1;HPM_P2
2022/01/14 00:01:59;;;;;;;56.63;20.83;;;;;;;2.33;100.00;103829.22;5092348;28;20066;-36
2022/01/14 00:04:25;;;;;;;69.23;20.03;;;;;;;2.37;100.00;103840.56;5094368;28;20085;-36
2022/01/14 00:06:50;;;;;;;66.93;20.67;;;;;;;2.41;100.00;103846.56;5093518;28;20032;-36
2022/01/14 00:09:17;;;;;;;89.53;22.60;;;;;;;2.34;100.00;103838.09;5093327;28;20028;-36
2022/01/14 00:11:47;;;;;;;;;;;;;;;2.46;100.00;103844.44;5093900;28;20055;-36
2022/01/14 00:16:40;;;;;;;64.03;20.80;;;;;;;2.38;100.00;103836.94;5093360;28;20377;-36
2022/01/14 00:19:06;;;;;;;74.80;21.70;;;;;;;2.37;100.00;103832.56;5093806;28;20081;-36
2022/01/14 00:21:34;;;;;;;43.27;20.53;;;;;;;2.43;100.00;103829.47;5093279;28;20384;-36
2022/01/14 00:24:12;;;;;;;69.82;23.83;;;;;;;2.39;100.00;103828.00;5093698;28;20524;-36
2022/01/14 00:32:22;;;;;;;55.45;22.45;;;;;;;2.36;100.00;103819.31;5051260;28;20449;-36
2022/01/14 00:34:48;;;;;;;58.17;22.40;;;;;;;2.28;100.00;103796.66;5050651;28;20037;-36
2022/01/14 00:37:16;;;;;;;63.27;22.77;;;;;;;2.31;100.00;103812.47;5050694;28;20047;-36
2022/01/14 00:39:41;;;;;;;52.97;22.65;;;;;;;2.22;100.00;103798.88;5050468;28;20079;-36
2022/01/14 00:42:08;;;;;;;80.68;24.65;;;;;;;2.30;100.00;103812.59;5050597;28;20060;-36
2022/01/14 00:44:33;;;;;;;77.55;24.08;;;;;;;2.30;100.00;103812.59;5051133;28;20443;-36
2022/01/14 00:47:02;;;;;;;54.85;22.77;;;;;;;2.35;100.00;103806.94;5050479;28;20029;-36
2022/01/14 00:49:27;;;;;;;98.38;25.00;;;;;;;2.23;100.00;103809.47;5050975;28;20382;-36
2022/01/14 00:51:53;;;;;;;67.97;23.17;;;;;;;2.15;100.00;103790.44;5050366;28;20066;-36
2022/01/14 00:54:18;;;;;;;57.60;22.13;;;;;;;2.22;100.00;103791.72;5051008;28;20025;-36
2022/01/14 00:59:16;;;;;;;66.20;20.87;;;;;;;2.25;100.00;103788.88;5050473;28;20033;-36
2022/01/14 01:01:49;;;;;;;59.50;21.50;;;;;;;2.23;100.00;103779.22;5050541;28;20116;-36
2022/01/14 01:04:18;;;;;;;83.97;22.38;;;;;;;2.16;100.00;103775.28;5050394;28;20057;-36
2022/01/14 01:06:45;;;;;;;58.03;21.13;;;;;;;2.11;100.00;103759.56;5050506;28;20594;-35
2022/01/14 01:09:12;;;;;;;71.30;22.77;;;;;;;2.21;100.00;103775.81;5081196;28;20086;-35
2022/01/14 01:11:48;;;;;;;48.55;20.98;;;;;;;2.23;100.00;103768.56;5092817;28;20036;-35
2022/01/14 01:14:19;;;;;;;72.60;22.83;;;;;;;2.19;100.00;103767.91;5092875;28;20107;-35
2022/01/14 01:16:44;;;;;;;46.15;19.60;;;;;;;2.23;100.00;103765.88;5092405;28;20270;-35
2022/01/14 01:19:10;;;;;;;40.53;20.30;;;;;;;2.22;100.00;103756.16;5092373;28;20502;-35
2022/01/14 01:21:36;;;;;;;46.85;19.70;;;;;;;2.24;100.00;103760.44;5092922;28;20024;-35
2022/01/14 01:24:03;;;;;;;76.97;23.92;;;;;;;2.16;100.00;103761.94;5092877;28;20039;-35
2022/01/14 01:26:36;;;;;;;55.00;20.48;;;;;;;2.18;100.00;103776.88;5092667;28;20479;-35
2022/01/14 01:31:40;;;;;;;87.45;20.85;;;;;;;2.17;100.00;103763.63;5093103;28;20039;-35
2022/01/14 01:34:09;;;;;;;73.82;21.27;;;;;;;2.17;100.00;103768.97;5092700;28;20051;-36
2022/01/14 01:36:35;;;;;;;49.90;19.63;;;;;;;2.18;100.00;103770.69;5092331;28;20065;-35
2022/01/14 01:39:04;;;;;;;50.17;19.38;;;;;;;2.18;100.00;103771.53;5092443;28;20027;-35
2022/01/14 01:41:29;;;;;;;59.40;19.35;;;;;;;2.16;100.00;103768.13;5094969;28;20466;-35
2022/01/14 01:43:55;;;;;;;63.03;19.70;;;;;;;2.18;100.00;103774.19;5096534;28;20067;-35
2022/01/14 01:46:23;;;;;;;51.47;19.70;;;;;;;2.11;100.00;103761.41;5096164;28;20456;-35
2022/01/14 01:48:48;;;;;;;46.47;20.20;;;;;;;2.17;100.00;103769.84;5096393;28;20365;-35
2022/01/14 01:51:14;;;;;;;49.22;18.92;;;;;;;2.16;100.00;103765.47;5096089;28;20031;-35
2022/01/14 01:53:39;;;;;;;53.20;20.10;;;;;;;2.20;100.00;103768.78;5096035;28;20484;-35
2022/01/14 01:56:05;;;;;;;72.90;20.00;;;;;;;2.14;100.00;103767.34;5096802;28;20036;-35
2022/01/14 01:58:30;;;;;;;55.95;18.17;;;;;;;2.09;100.00;103745.47;5096330;28;20059;-35
2022/01/14 02:00:56;;;;;;;61.53;19.53;;;;;;;2.13;100.00;103762.13;5096496;28;20028;-35
2022/01/14 02:03:22;;;;;;;93.47;19.60;;;;;;;2.11;100.00;103764.91;5095868;28;20024;-35
2022/01/14 02:05:47;;;;;;;46.92;17.95;;;;;;;2.20;100.00;103766.97;5095856;28;20512;-35
2022/01/14 02:08:13;;;;;;;53.77;17.93;;;;;;;2.18;100.00;103765.34;5094771;28;20023;-35
2022/01/14 02:10:39;;;;;;;52.10;17.70;;;;;;;2.19;100.00;103762.56;5095559;28;20472;-36
2022/01/14 02:13:06;;;;;;;45.90;16.80;;;;;;;2.21;100.00;103749.97;5096475;28;20031;-36
2022/01/14 02:15:49;;;;;;;63.50;18.08;;;;;;;2.18;100.00;103744.84;5096502;28;20035;-36
2022/01/14 02:23:27;;;;;;;46.80;16.42;;;;;;;2.06;100.00;103730.53;5096043;28;20047;-36
2022/01/14 02:25:52;;;;;;;74.25;18.05;;;;;;;2.06;100.00;103740.34;5094455;28;20039;-36
2022/01/14 02:28:18;;;;;;;50.37;15.93;;;;;;;2.09;100.00;103742.78;5095596;28;20475;-36
2022/01/14 02:30:49;;;;;;;59.43;17.47;;;;;;;2.03;100.00;103738.72;5095624;28;20387;-36
2022/01/14 02:33:16;;;;;;;34.28;15.85;;;;;;;2.04;100.00;103743.09;5095275;28;20463;-36
2022/01/14 02:35:45;;;;;;;49.95;17.58;;;;;;;2.04;100.00;103743.09;5095232;28;20089;-36
2022/01/14 02:38:12;;;;;;;41.30;17.00;;;;;;;2.06;100.00;103740.34;5095636;28;20031;-36
2022/01/14 02:40:39;;;;;;;33.03;15.93;;;;;;;2.20;100.00;103740.25;5094987;28;20081;-36
2022/01/14 02:43:11;;;;;;;46.42;17.00;;;;;;;2.13;100.00;103744.28;5095151;28;20069;-36
2022/01/14 02:45:37;;;;;;;49.28;16.95;;;;;;;2.09;100.00;103734.78;5095054;28;20034;-36
2022/01/14 02:48:03;;;;;;;57.55;16.35;;;;;;;2.11;100.00;103732.88;5095004;28;20111;-36
2022/01/14 02:50:37;;;;;;;;;;;;;;;2.20;100.00;103739.41;5095899;28;20120;-36
2022/01/14 02:53:12;;;;;;;34.38;14.95;;;;;;;2.16;100.00;103732.56;5095382;28;19955;-36
2022/01/14 02:55:43;;;;;;;39.83;14.90;;;;;;;2.04;100.00;103721.75;5095436;28;20043;-36
2022/01/14 02:58:10;;;;;;;39.72;14.63;;;;;;;2.02;100.00;103714.81;5094723;28;20024;-36
2022/01/14 03:00:37;;;;;;;32.10;14.77;;;;;;;1.85;100.00;103689.25;5094528;28;20024;-36
2022/01/14 03:03:04;;;;;;;47.97;15.18;;;;;;;2.01;100.00;103718.47;5094483;28;20028;-36
2022/01/14 03:05:30;;;;;;;77.28;16.45;;;;;;;1.98;100.00;103737.34;5094531;28;20028;-36
2022/01/14 03:07:56;;;;;;;34.33;14.27;;;;;;;2.01;100.00;103731.81;5094351;28;20081;-36
2022/01/14 03:10:21;;;;;;;34.20;14.40;;;;;;;2.05;100.00;103733.31;5094567;28;20027;-36
2022/01/14 03:12:47;;;;;;;30.43;12.87;;;;;;;2.11;100.00;103730.22;5092876;28;20384;-36
2022/01/14 03:15:15;;;;;;;42.25;14.88;;;;;;;2.12;100.00;103728.41;5094605;28;20024;-36
2022/01/14 03:17:41;;;;;;;39.08;14.48;;;;;;;2.11;100.00;103732.88;5094271;28;20365;-36
2022/01/14 03:20:09;;;;;;;;;;;;;;;2.23;100.00;103729.34;5094916;28;20024;-36
2022/01/14 03:22:36;;;;;;;40.75;14.07;;;;;;;2.22;100.00;103727.66;5094337;28;19970;-36
2022/01/14 03:27:49;;;;;;;52.60;14.40;;;;;;;2.23;100.00;103732.03;5094054;28;20043;-36
2022/01/14 03:30:15;;;;;;;39.70;13.60;;;;;;;2.24;100.00;103722.19;5094776;28;20461;-36
2022/01/14 03:32:41;;;;;;;62.15;13.95;;;;;;;2.20;100.00;103728.72;5094664;28;20509;-36
2022/01/14 03:35:08;;;;;;;36.67;12.82;;;;;;;2.22;100.00;103727.66;5094145;28;20032;-36
2022/01/14 03:37:34;;;;;;;54.80;13.95;;;;;;;2.13;100.00;103722.09;5093887;28;20024;-36
2022/01/14 03:39:59;;;;;;;25.50;12.60;;;;;;;2.19;100.00;103725.19;5094184;28;20031;-36
2022/01/14 03:42:24;;;;;;;39.13;12.87;;;;;;;2.18;100.00;103710.13;5092763;28;20028;-36
2022/01/14 03:44:50;;;;;;;25.30;10.83;;;;;;;2.39;100.00;103725.63;5093034;28;20027;-36
2022/01/14 03:47:15;;;;;;;27.33;12.60;;;;;;;2.22;100.00;103706.28;5094447;28;20380;-36
2022/01/14 03:49:41;;;;;;;28.67;12.80;;;;;;;2.29;100.00;103707.59;5094122;28;20020;-36
2022/01/14 03:52:06;;;;;;;49.00;14.37;;;;;;;2.32;100.00;103719.84;5093849;28;20433;-36
2022/01/14 03:54:32;;;;;;;45.80;13.95;;;;;;;2.25;100.00;103714.09;5093554;28;20431;-36
2022/01/14 03:56:57;;;;;;;64.37;14.73;;;;;;;2.20;100.00;103710.03;5093748;28;20034;-36
2022/01/14 03:59:22;;;;;;;85.97;14.60;;;;;;;2.09;100.00;103699.22;5094245;28;20032;-36
2022/01/14 04:01:48;;;;;;;78.83;14.50;;;;;;;2.16;100.00;103712.06;5093321;28;20116;-36
2022/01/14 04:04:13;;;;;;;63.63;12.57;;;;;;;2.13;100.00;103712.25;5092892;28;20452;-35
2022/01/14 04:06:38;;;;;;;45.27;12.93;;;;;;;2.06;100.00;103697.63;5093615;28;20447;-35
2022/01/14 04:09:04;;;;;;;37.80;12.97;;;;;;;2.15;100.00;103707.69;5093311;28;20119;-35
2022/01/14 04:11:32;;;;;;;27.95;12.80;;;;;;;2.17;100.00;103707.56;5093598;28;20028;-35
2022/01/14 04:14:08;;;;;;;31.35;12.18;;;;;;;2.21;100.00;103712.59;5092784;28;20531;-35
2022/01/14 04:16:33;;;;;;;76.20;15.27;;;;;;;2.16;100.00;103708.53;5094400;28;20387;-35
2022/01/14 04:18:59;;;;;;;58.30;14.13;;;;;;;2.14;100.00;103707.78;5094137;28;20112;-35
2022/01/14 04:21:26;;;;;;;49.77;13.33;;;;;;;2.17;100.00;103708.44;5093393;28;20035;-35
2022/01/14 04:23:51;;;;;;;33.60;12.75;;;;;;;2.11;100.00;103698.19;5092239;28;20028;-36
2022/01/14 04:26:17;;;;;;;44.77;13.53;;;;;;;2.11;100.00;103690.16;5093252;28;20099;-35
2022/01/14 04:28:43;;;;;;;54.33;14.15;;;;;;;2.03;100.00;103687.16;5094197;28;20081;-35
2022/01/14 04:31:09;;;;;;;54.65;14.20;;;;;;;2.02;100.00;103696.13;5093011;28;20052;-35
2022/01/14 04:33:36;;;;;;;33.13;12.73;;;;;;;1.94;100.00;103688.63;5093636;28;20086;-35
2022/01/14 04:36:03;;;;;;;51.53;13.07;;;;;;;2.00;100.00;103696.25;5092105;28;20032;-35
2022/01/14 04:38:30;;;;;;;35.58;12.38;;;;;;;2.06;100.00;103700.31;5093252;28;20028;-35
2022/01/14 04:40:56;;;;;;;26.73;11.82;;;;;;;2.10;100.00;103699.16;5092991;28;20480;-35
2022/01/14 04:43:21;;;;;;;52.83;13.27;;;;;;;2.02;100.00;103697.00;5093434;28;20063;-35
2022/01/14 04:48:27;;;;;;;26.40;11.68;;;;;;;2.08;100.00;103698.38;5093331;28;20036;-35
2022/01/14 04:50:54;;;;;;;25.70;12.45;;;;;;;1.93;100.00;103678.94;5093241;28;20089;-35
2022/01/14 04:53:21;;;;;;;38.00;12.88;;;;;;;2.01;100.00;103676.59;5093605;28;20173;-35
2022/01/14 04:55:47;;;;;;;32.97;12.23;;;;;;;2.05;100.00;103674.59;5093106;28;20384;-35
2022/01/14 04:58:12;;;;;;;47.70;13.07;;;;;;;2.00;100.00;103682.91;5093266;28;20020;-35
2022/01/14 05:00:39;;;;;;;56.23;13.20;;;;;;;1.82;100.00;103661.97;5093774;28;20038;-35
2022/01/14 05:03:04;;;;;;;38.15;12.38;;;;;;;1.90;100.00;103665.78;5093057;28;20028;-35
2022/01/14 05:05:33;;;;;;;22.83;11.10;;;;;;;1.86;100.00;103640.28;5091800;28;20028;-35
2022/01/14 05:07:59;;;;;;;37.72;12.00;;;;;;;1.84;100.00;103650.19;5092914;28;20368;-36
2022/01/14 05:12:50;;;;;;;57.07;11.90;;;;;;;1.79;100.00;103652.34;5093202;28;20089;-35
2022/01/14 05:15:17;;;;;;;37.58;11.45;;;;;;;1.82;100.00;103652.13;5093530;28;20111;-36
2022/01/14 05:17:43;;;;;;;37.85;11.60;;;;;;;1.74;100.00;103652.66;5096342;28;20032;-36
2022/01/14 05:20:10;;;;;;;53.60;12.88;;;;;;;1.68;100.00;103649.56;5096908;28;20112;-35
2022/01/14 05:22:36;;;;;;;46.38;11.88;;;;;;;1.68;100.00;103644.22;5096647;28;20395;-36
2022/01/14 05:25:01;;;;;;;31.58;11.55;;;;;;;1.70;100.00;103650.28;5096989;28;20032;-36
2022/01/14 05:27:26;;;;;;;64.68;14.20;;;;;;;1.57;100.00;103650.28;5097201;28;20036;-35
2022/01/14 05:29:52;;;;;;;50.97;12.80;;;;;;;1.62;100.00;103639.31;5096896;28;20453;-35
2022/01/14 05:32:17;;;;;;;31.77;12.43;;;;;;;1.62;100.00;103640.16;5096551;28;20384;-35
2022/01/14 05:34:46;;;;;;;49.85;12.55;;;;;;;1.69;100.00;103651.25;5097278;28;20024;-35
2022/01/14 05:37:12;;;;;;;49.30;12.10;;;;;;;1.76;100.00;103657.91;5096263;28;20456;-35
2022/01/14 05:39:38;;;;;;;53.00;11.55;;;;;;;1.63;100.00;103633.84;5096949;28;20035;-36
2022/01/14 05:42:04;;;;;;;31.73;11.40;;;;;;;1.64;100.00;103626.69;5096386;28;20104;-36
2022/01/14 05:44:30;;;;;;;45.45;12.60;;;;;;;1.67;100.00;103643.38;5096612;28;20035;-36
2022/01/14 05:46:57;;;;;;;26.27;11.88;;;;;;;1.71;100.00;103644.88;5096265;28;20104;-36
2022/01/14 05:49:23;;;;;;;44.22;12.27;;;;;;;1.66;100.00;103631.00;5096065;28;20032;-36
2022/01/14 05:51:49;;;;;;;64.18;13.27;;;;;;;1.58;100.00;103627.13;5096209;28;20032;-36
2022/01/14 05:54:15;;;;;;;56.08;12.95;;;;;;;1.66;100.00;103644.31;5095914;28;20119;-36
2022/01/14 05:56:41;;;;;;;35.47;12.68;;;;;;;1.64;100.00;103632.88;5094254;28;20133;-36
2022/01/14 05:59:07;;;;;;;34.90;12.98;;;;;;;1.63;100.00;103620.50;5096345;28;20479;-36
2022/01/14 06:01:32;;;;;;;33.87;11.80;;;;;;;1.71;100.00;103638.69;5095883;28;20020;-36
2022/01/14 06:03:58;;;;;;;42.08;13.52;;;;;;;1.61;100.00;103627.78;5095772;28;20027;-36
2022/01/14 06:06:24;;;;;;;39.17;12.90;;;;;;;1.66;100.00;103641.66;5095593;28;20528;-34
2022/01/14 06:08:50;;;;;;;48.67;12.93;;;;;;;1.63;100.00;103644.53;5096420;28;20067;-36
2022/01/14 06:11:16;;;;;;;49.47;11.88;;;;;;;1.54;100.00;103639.81;5095755;28;20464;-35
2022/01/14 06:13:41;;;;;;;50.92;12.55;;;;;;;1.49;100.00;103645.44;5096025;28;20521;-35
2022/01/14 06:16:07;;;;;;;64.50;12.60;;;;;;;1.50;100.00;103654.31;5094494;28;20427;-35
2022/01/14 06:18:32;;;;;;;39.47;11.50;;;;;;;1.48;100.00;103658.91;5095794;28;20043;-35
2022/01/14 06:20:58;;;;;;;32.57;11.50;;;;;;;1.56;100.00;103675.22;5096392;28;20109;-35
2022/01/14 06:23:23;;;;;;;21.07;11.13;;;;;;;1.65;100.00;103671.09;5095554;28;20177;-35
2022/01/14 06:25:48;;;;;;;38.40;12.23;;;;;;;1.63;100.00;103651.69;5095506;28;20024;-35
2022/01/14 06:28:14;;;;;;;42.07;12.60;;;;;;;1.60;100.00;103639.38;5094850;28;20028;-35
2022/01/14 06:30:39;;;;;;;60.97;13.40;;;;;;;1.56;100.00;103656.56;5095211;28;20028;-36
2022/01/14 06:33:06;;;;;;;44.23;12.43;;;;;;;1.52;100.00;103655.06;5095383;28;20058;-36
2022/01/14 06:35:31;;;;;;;;;;;;;;;1.59;100.00;103661.69;5095930;28;20035;-36
2022/01/14 06:37:57;;;;;;;28.47;10.73;;;;;;;1.54;100.00;103658.47;5095103;28;19912;-37
2022/01/14 06:40:23;;;;;;;44.28;11.77;;;;;;;1.45;100.00;103651.94;5095726;28;20331;-36
2022/01/14 06:42:50;;;;;;;25.90;10.73;;;;;;;1.60;100.00;103652.72;5093998;28;20174;-35
2022/01/14 06:45:15;;;;;;;;;;;;;;;1.65;100.00;103647.94;5096333;28;20028;-35
2022/01/14 06:47:41;;;;;;;35.00;11.20;;;;;;;1.58;100.00;103637.78;5094406;28;20298;-35
2022/01/14 06:50:06;;;;;;;51.67;11.77;;;;;;;1.55;100.00;103646.84;5095840;28;20020;-37
2022/01/14 06:52:32;;;;;;;73.63;11.80;;;;;;;1.49;100.00;103649.94;5095098;28;20046;-36
2022/01/14 06:54:57;;;;;;;35.37;11.00;;;;;;;1.44;100.00;103650.25;5094842;28;20031;-36
2022/01/14 06:57:24;;;;;;;30.90;10.70;;;;;;;1.55;100.00;103649.50;5094928;28;20028;-36
2022/01/14 06:59:49;;;;;;;54.03;12.10;;;;;;;1.48;100.00;103648.22;5095810;28;20088;-36
2022/01/14 07:02:15;;;;;;;51.08;11.85;;;;;;;1.46;100.00;103645.66;5094645;28;20028;-36
2022/01/14 07:04:40;;;;;;;31.43;11.20;;;;;;;1.48;100.00;103649.06;5095257;28;20032;-36
2022/01/14 07:07:05;;;;;;;49.10;12.10;;;;;;;1.49;100.00;103660.59;5095210;28;20110;-37
2022/01/14 07:09:31;;;;;;;20.13;10.60;;;;;;;1.56;100.00;103637.88;5095461;28;20024;-36
2022/01/14 07:12:00;;;;;;;44.60;11.35;;;;;;;1.53;100.00;103638.09;5095339;28;20055;-36
2022/01/14 07:14:25;;;;;;;58.30;11.85;;;;;;;1.51;100.00;103638.22;5094977;28;20028;-37
2022/01/14 07:16:51;;;;;;;42.63;11.32;;;;;;;1.48;100.00;103658.91;5094275;28;20102;-36
2022/01/14 07:19:20;;;;;;;23.13;10.23;;;;;;;1.48;100.00;103646.41;5095758;28;20040;-36
2022/01/14 07:21:45;;;;;;;54.17;10.90;;;;;;;1.42;100.00;103661.97;5094193;28;20024;-36
2022/01/14 07:24:13;;;;;;;38.15;10.07;;;;;;;1.51;100.00;103658.66;5094849;28;20032;-36
2022/01/14 07:26:39;;;;;;;60.90;11.20;;;;;;;1.41;100.00;103655.75;5094494;28;20106;-36
2022/01/14 07:29:05;;;;;;;44.30;10.35;;;;;;;1.37;100.00;103656.09;5094750;28;20028;-36
2022/01/14 07:31:30;;;;;;;52.78;10.25;;;;;;;1.36;100.00;103657.88;5094344;28;20384;-36
2022/01/14 07:33:56;;;;;;;73.23;11.20;;;;;;;1.32;100.00;103668.84;5094362;28;20460;-36
2022/01/14 07:36:21;;;;;;;68.43;12.03;;;;;;;1.26;100.00;103680.78;5093996;28;20035;-37
2022/01/14 07:38:47;;;;;;;39.70;11.00;;;;;;;1.24;100.00;103682.69;5093622;28;20066;-36
2022/01/14 07:41:12;;;;;;;55.47;11.53;;;;;;;1.20;100.00;103670.53;5094446;28;20267;-37
2022/01/14 07:43:37;;;;;;;31.23;9.50;;;;;;;1.33;100.00;103673.25;5094326;28;20016;-36
2022/01/14 07:46:05;;;;;;;69.47;11.30;;;;;;;1.24;100.00;103672.88;5094526;28;20052;-36
2022/01/14 07:48:31;;;;;;;74.47;11.65;;;;;;;1.13;100.00;103656.75;5093785;28;20111;-36
2022/01/14 07:50:56;;;;;;;95.82;12.98;;;;;;;1.13;100.00;103669.22;5094025;28;20120;-36
2022/01/14 07:53:22;;;;;;;49.53;10.77;;;;;;;1.15;100.00;103670.81;5093456;28;20032;-36
2022/01/14 07:55:47;;;;;;;35.47;10.23;;;;;;;1.09;100.00;103657.06;5094016;28;20028;-43
2022/01/14 07:58:13;;;;;;;53.43;11.07;;;;;;;1.22;100.00;103676.59;5093609;28;20024;-36
2022/01/14 08:00:39;;;;;;;50.22;11.73;;;;;;;1.19;100.00;103675.00;5093973;28;20060;-36
2022/01/14 08:03:05;;;;;;;61.63;11.45;;;;;;;1.01;100.00;103628.22;5093620;28;20024;-36
2022/01/14 08:05:30;;;;;;;62.67;12.30;;;;;;;1.20;100.00;103665.19;5093609;28;20024;-36
2022/01/14 08:07:58;;;;;;;71.32;12.50;;;;;;;1.07;100.00;103651.81;5094026;28;20034;-36
2022/01/14 08:10:23;;;;;;;76.13;12.32;;;;;;;1.03;100.00;103627.19;5093601;28;20059;-36
2022/01/14 08:12:49;;;;;;;37.03;10.18;;;;;;;1.20;100.00;103643.88;5093121;28;20507;-36
2022/01/14 08:15:14;;;;;;;60.77;11.97;;;;;;;1.14;100.00;103649.59;5093404;28;20372;-36
2022/01/14 08:17:40;;;;;;;73.13;12.27;;;;;;;1.13;100.00;103645.25;5093864;28;20089;-36
2022/01/14 08:20:07;;;;;;;50.80;10.75;;;;;;;1.17;100.00;103646.72;5093809;28;20374;-36
2022/01/14 08:22:33;;;;;;;49.40;11.38;;;;;;;1.16;100.00;103639.69;5093267;28;20032;-34
2022/01/14 08:24:59;;;;;;;43.85;10.60;;;;;;;1.14;100.00;103670.94;5093159;28;20103;-34
2022/01/14 08:27:26;;;;;;;62.90;12.10;;;;;;;1.17;100.00;103663.59;5093309;28;20531;-34
2022/01/14 08:29:55;;;;;;;50.80;11.55;;;;;;;1.19;100.00;103669.66;5094065;28;20417;-34
2022/01/14 08:32:23;;;;;;;53.92;11.73;;;;;;;1.24;100.00;103686.22;5093236;28;20032;-35
2022/01/14 08:34:50;;;;;;;59.10;12.25;;;;;;;1.22;100.00;103674.81;5093298;28;20064;-35
2022/01/14 08:37:15;;;;;;;63.70;13.52;;;;;;;1.02;100.00;103629.94;5092805;28;20077;-35
2022/01/14 08:39:41;;;;;;;65.07;11.73;;;;;;;1.16;100.00;103674.34;5093483;28;20028;-34
2022/01/14 08:42:08;;;;;;;58.73;13.10;;;;;;;1.09;100.00;103681.88;5092947;28;20369;-35
2022/01/14 08:44:36;;;;;;;41.90;12.20;;;;;;;1.20;100.00;103663.38;5093228;28;20075;-35
2022/01/14 08:47:02;;;;;;;33.50;12.02;;;;;;;1.31;100.00;103669.81;5093319;28;20028;-35
2022/01/14 08:49:27;;;;;;;82.85;13.63;;;;;;;1.20;100.00;103652.72;5093587;28;20039;-35
2022/01/14 08:51:53;;;;;;;43.07;11.87;;;;;;;1.38;100.00;103673.81;5097031;28;20024;-35
2022/01/14 08:54:18;;;;;;;45.17;12.17;;;;;;;1.37;100.00;103653.44;5097249;28;20020;-35
2022/01/14 08:56:43;;;;;;;75.40;13.53;;;;;;;1.44;100.00;103668.06;5097134;28;20124;-35
2022/01/14 08:59:09;;;;;;;43.20;12.80;;;;;;;1.44;100.00;103674.25;5097231;28;20028;-35
2022/01/14 09:01:35;;;;;;;50.70;12.47;;;;;;;1.54;100.00;103669.16;5097071;28;20369;-35
2022/01/14 09:04:02;;;;;;;92.47;13.73;;;;;;;1.44;100.00;103668.91;5097063;28;20081;-35
2022/01/14 09:06:27;;;;;;;;;;;;;;;1.61;100.00;103666.91;5097453;28;20028;-35
2022/01/14 09:08:53;;;;;;;60.53;12.70;;;;;;;1.59;100.00;103664.34;5097252;28;19908;-35
2022/01/14 09:11:19;;;;;;;43.42;12.68;;;;;;;1.62;100.00;103660.66;5097174;28;20216;-35
2022/01/14 09:13:44;;;;;;;52.45;13.60;;;;;;;1.61;100.00;103665.13;5097241;28;20054;-35
2022/01/14 09:16:10;;;;;;;60.00;12.50;;;;;;;1.49;100.00;103661.44;5097348;28;20031;-35
2022/01/14 09:18:35;;;;;;;52.65;13.25;;;;;;;1.44;100.00;103646.72;5096342;28;20301;-35
2022/01/14 09:21:01;;;;;;;51.00;13.40;;;;;;;1.63;100.00;103665.00;5096441;28;20447;-35
2022/01/14 09:23:28;;;;;;;80.77;14.43;;;;;;;1.60;100.00;103642.06;5096907;28;20027;-35
2022/01/14 09:25:54;;;;;;;29.60;12.52;;;;;;;1.64;100.00;103658.72;5096338;28;20024;-35
2022/01/14 09:28:19;;;;;;;64.30;13.18;;;;;;;1.63;100.00;103670.34;5097081;28;20028;-35
2022/01/14 09:30:44;;;;;;;37.67;13.00;;;;;;;1.60;100.00;103658.06;5096545;28;20226;-35
2022/01/14 09:33:10;;;;;;;36.07;12.87;;;;;;;1.71;100.00;103682.22;5097207;28;20024;-35
2022/01/14 09:35:37;;;;;;;54.70;13.07;;;;;;;1.71;100.00;103679.56;5096725;28;20024;-35
2022/01/14 09:38:02;;;;;;;50.08;13.48;;;;;;;1.72;100.00;103667.91;5096350;28;20112;-35
2022/01/14 09:40:28;;;;;;;45.47;12.65;;;;;;;1.82;100.00;103672.63;5096394;28;20063;-35
2022/01/14 09:43:00;;;;;;;35.03;13.47;;;;;;;1.83;100.00;103680.53;5096278;28;20027;-35
2022/01/14 09:45:26;;;;;;;60.58;13.73;;;;;;;1.82;100.00;103699.31;5096238;28;20062;-35
2022/01/14 09:47:52;;;;;;;39.00;12.27;;;;;;;2.01;100.00;103691.75;5096623;28;20062;-35
2022/01/14 09:50:18;;;;;;;32.17;12.73;;;;;;;2.08;100.00;103703.72;5095951;28;20469;-35
2022/01/14 09:52:45;;;;;;;50.40;13.45;;;;;;;1.99;100.00;103694.50;5096008;28;20278;-35
2022/01/14 09:55:11;;;;;;;39.22;13.40;;;;;;;2.02;100.00;103697.00;5096308;28;20422;-35
2022/01/14 09:57:37;;;;;;;24.17;11.85;;;;;;;2.15;100.00;103686.34;5095975;28;20032;-35
2022/01/14 10:00:05;;;;;;;47.93;13.93;;;;;;;2.13;100.00;103704.25;5096521;28;20396;-35
2022/01/14 10:02:34;;;;;;;38.60;13.43;;;;;;;2.12;100.00;103691.88;5095283;28;20201;-35
2022/01/14 10:05:01;;;;;;;38.88;13.13;;;;;;;2.13;100.00;103687.38;5095920;28;20032;-35
2022/01/14 10:07:27;;;;;;;38.50;13.77;;;;;;;2.21;100.00;103706.41;5096607;28;20062;-35
2022/01/14 10:09:57;;;;;;;;;;;;;;;2.30;100.00;103700.44;5096520;28;20026;-35
2022/01/14 10:12:23;;;;;;;28.30;12.63;;;;;;;2.19;100.00;103682.47;5095721;28;19915;-35
2022/01/14 10:14:57;;;;;;;22.83;12.75;;;;;;;2.20;100.00;103670.84;5094715;28;20028;-35
2022/01/14 10:17:23;;;;;;;25.33;12.27;;;;;;;2.30;100.00;103690.59;5096357;28;20373;-35
2022/01/14 10:19:49;;;;;;;40.17;14.73;;;;;;;2.22;100.00;103690.28;5094470;28;20242;-35
2022/01/14 10:22:25;;;;;;;23.70;13.90;;;;;;;2.31;100.00;103692.31;5095526;28;20036;-35
2022/01/14 10:24:53;;;;;;;23.25;13.32;;;;;;;2.44;100.00;103702.09;5095570;28;20258;-35
2022/01/14 10:27:49;;;;;;;23.02;13.93;;;;;;;2.38;100.00;103695.38;5096028;28;20024;-35
2022/01/14 10:30:30;;;;;;;21.73;13.30;;;;;;;2.43;100.00;103700.41;5094797;28;20036;-35
2022/01/14 10:32:57;;;;;;;26.08;13.45;;;;;;;2.50;100.00;103691.03;5095673;28;20024;-35
2022/01/14 10:35:25;;;;;;;28.58;14.70;;;;;;;2.26;100.00;103669.56;5095313;28;20028;-35
2022/01/14 10:37:51;;;;;;;37.75;14.90;;;;;;;2.26;100.00;103681.09;5095091;28;20028;-35
2022/01/14 10:40:19;;;;;;;24.33;14.15;;;;;;;2.55;100.00;103691.53;5095462;28;20516;-35
2022/01/14 10:42:47;;;;;;;26.52;15.60;;;;;;;2.43;100.00;103685.22;5095310;28;20422;-35
2022/01/14 10:45:25;;;;;;;21.77;13.93;;;;;;;2.52;100.00;103683.75;5095242;28;20020;-35
2022/01/14 10:48:07;;;;;;;22.08;13.48;;;;;;;2.52;100.00;103681.06;5094984;28;20503;-35
2022/01/14 10:50:39;;;;;;;25.95;15.30;;;;;;;2.47;100.00;103686.72;5095389;28;20024;-35
2022/01/14 10:53:14;;;;;;;24.88;15.02;;;;;;;2.49;100.00;103666.13;5095422;28;20381;-35
2022/01/14 10:55:48;;;;;;;27.05;15.43;;;;;;;2.46;100.00;103676.16;5094593;28;20039;-35
2022/01/14 10:58:16;;;;;;;26.60;15.77;;;;;;;2.50;100.00;103685.69;5094639;28;20023;-35
2022/01/14 11:00:48;;;;;;;24.92;15.82;;;;;;;2.55;100.00;103672.84;5094864;28;20036;-35
2022/01/14 11:03:14;;;;;;;27.85;15.45;;;;;;;2.57;100.00;103658.41;5094503;28;20032;-35
2022/01/14 11:05:41;;;;;;;26.75;16.10;;;;;;;2.58;100.00;103657.44;5095484;28;20368;-36
2022/01/14 11:08:07;;;;;;;28.88;16.70;;;;;;;2.62;100.00;103657.22;5094502;28;20408;-35
2022/01/14 11:10:36;;;;;;;27.60;17.27;;;;;;;2.57;100.00;103665.56;5094664;28;20108;-35
2022/01/14 11:13:05;;;;;;;26.42;16.48;;;;;;;2.47;100.00;103648.47;5094475;28;20353;-35
2022/01/14 11:15:32;;;;;;;26.60;16.88;;;;;;;2.63;100.00;103653.56;5094483;28;20384;-35
2022/01/14 11:18:01;;;;;;;24.63;14.15;;;;;;;2.54;100.00;103610.56;5093212;28;20027;-35
2022/01/14 11:20:36;;;;;;;22.00;15.30;;;;;;;2.70;100.00;103649.53;5095206;28;20032;-35
2022/01/14 11:23:14;;;;;;;23.85;15.27;;;;;;;2.61;100.00;103640.34;5094391;28;20024;-35
2022/01/14 11:25:59;;;;;;;28.08;16.10;;;;;;;2.62;100.00;103626.00;5094081;28;20024;-35
2022/01/14 11:28:29;;;;;;;23.15;15.02;;;;;;;2.71;100.00;103654.75;5094629;28;20039;-34
2022/01/14 11:30:55;;;;;;;25.90;14.55;;;;;;;2.89;100.00;103649.03;5093995;28;20032;-35
2022/01/14 11:33:37;;;;;;;25.05;15.88;;;;;;;2.89;100.00;103657.06;5094132;28;20039;-35
2022/01/14 11:36:06;;;;;;;26.63;16.77;;;;;;;2.79;100.00;103649.72;5094292;28;20032;-35
2022/01/14 11:38:39;;;;;;;22.05;14.90;;;;;;;2.96;100.00;103658.31;5094515;28;20020;-39